sensor_id;sensor_type;location;lat;lon;timestamp;P1;durP1;ratioP1;P2;durP2;ratioP2
57561;SDS011;43397;51.530;5.974;2023-04-03T00:01:03;12.27;;;9.40;;
57561;SDS011;43397;51.530;5.974;2023-04-03T00:03:29;13.07;;;9.57;;
57561;SDS011;43397;51.530;5.974;2023-04-03T00:05:54;17.13;;;12.18;;
57561;SDS011;43397;51.530;5.974;2023-04-03T00:08:20;15.13;;;10.85;;
57561;SDS011;43397;51.530;5.974;2023-04-03T00:10:47;14.40;;;11.23;;
57561;SDS011;43397;51.530;5.974;2023-04-03T00:13:12;13.57;;;10.45;;
57561;SDS011;43397;51.530;5.974;2023-04-03T00:15:38;14.02;;;11.43;;
57561;SDS011;43397;51.530;5.974;2023-04-03T00:18:04;15.68;;;11.30;;
57561;SDS011;43397;51.530;5.974;2023-04-03T00:20:29;20.02;;;12.38;;
57561;SDS011;43397;51.530;5.974;2023-04-03T00:22:55;15.27;;;11.57;;
57561;SDS011;43397;51.530;5.974;2023-04-03T00:25:20;17.42;;;12.40;;
57561;SDS011;43397;51.530;5.974;2023-04-03T00:27:48;19.33;;;13.57;;
57561;SDS011;43397;51.530;5.974;2023-04-03T00:30:14;17.23;;;12.68;;
57561;SDS011;43397;51.530;5.974;2023-04-03T00:32:39;16.92;;;12.45;;
57561;SDS011;43397;51.530;5.974;2023-04-03T00:35:05;15.88;;;11.95;;
57561;SDS011;43397;51.530;5.974;2023-04-03T00:37:31;22.58;;;14.05;;
57561;SDS011;43397;51.530;5.974;2023-04-03T00:39:56;15.73;;;12.15;;
57561;SDS011;43397;51.530;5.974;2023-04-03T00:42:22;15.02;;;11.50;;
57561;SDS011;43397;51.530;5.974;2023-04-03T00:47:33;13.88;;;11.13;;
57561;SDS011;43397;51.530;5.974;2023-04-03T00:49:58;14.93;;;12.45;;
57561;SDS011;43397;51.530;5.974;2023-04-03T00:52:25;16.48;;;12.43;;
57561;SDS011;43397;51.530;5.974;2023-04-03T00:54:53;14.50;;;12.73;;
57561;SDS011;43397;51.530;5.974;2023-04-03T00:57:19;14.90;;;11.50;;
57561;SDS011;43397;51.530;5.974;2023-04-03T00:59:48;16.38;;;11.43;;
57561;SDS011;43397;51.530;5.974;2023-04-03T01:02:15;13.85;;;11.65;;
57561;SDS011;43397;51.530;5.974;2023-04-03T01:04:42;16.77;;;11.93;;
57561;SDS011;43397;51.530;5.974;2023-04-03T01:07:08;14.55;;;11.63;;
57561;SDS011;43397;51.530;5.974;2023-04-03T01:09:35;12.88;;;10.98;;
57561;SDS011;43397;51.530;5.974;2023-04-03T01:12:12;21.98;;;11.55;;
57561;SDS011;43397;51.530;5.974;2023-04-03T01:14:37;13.10;;;10.52;;
57561;SDS011;43397;51.530;5.974;2023-04-03T01:17:03;14.45;;;11.40;;
57561;SDS011;43397;51.530;5.974;2023-04-03T01:19:28;13.07;;;10.90;;
57561;SDS011;43397;51.530;5.974;2023-04-03T01:22:07;13.88;;;10.77;;
57561;SDS011;43397;51.530;5.974;2023-04-03T01:24:35;14.68;;;10.75;;
57561;SDS011;43397;51.530;5.974;2023-04-03T01:27:02;18.48;;;11.43;;
57561;SDS011;43397;51.530;5.974;2023-04-03T01:29:28;13.82;;;10.27;;
57561;SDS011;43397;51.530;5.974;2023-04-03T01:31:56;13.60;;;11.35;;
57561;SDS011;43397;51.530;5.974;2023-04-03T01:34:22;17.08;;;12.15;;
57561;SDS011;43397;51.530;5.974;2023-04-03T01:36:47;16.15;;;12.25;;
57561;SDS011;43397;51.530;5.974;2023-04-03T01:39:13;16.30;;;12.07;;
57561;SDS011;43397;51.530;5.974;2023-04-03T01:41:39;16.55;;;12.30;;
57561;SDS011;43397;51.530;5.974;2023-04-03T01:44:04;15.55;;;11.85;;
57561;SDS011;43397;51.530;5.974;2023-04-03T01:46:30;15.07;;;11.70;;
57561;SDS011;43397;51.530;5.974;2023-04-03T01:48:57;14.85;;;12.52;;
57561;SDS011;43397;51.530;5.974;2023-04-03T01:51:23;17.35;;;12.38;;
57561;SDS011;43397;51.530;5.974;2023-04-03T01:53:48;15.68;;;12.70;;
57561;SDS011;43397;51.530;5.974;2023-04-03T01:56:13;16.88;;;12.77;;
57561;SDS011;43397;51.530;5.974;2023-04-03T01:58:39;20.30;;;13.75;;
57561;SDS011;43397;51.530;5.974;2023-04-03T02:01:04;16.58;;;12.65;;
57561;SDS011;43397;51.530;5.974;2023-04-03T02:03:30;15.90;;;12.60;;
57561;SDS011;43397;51.530;5.974;2023-04-03T02:05:57;16.98;;;12.00;;
57561;SDS011;43397;51.530;5.974;2023-04-03T02:08:22;18.25;;;11.18;;
57561;SDS011;43397;51.530;5.974;2023-04-03T02:10:48;15.10;;;11.02;;
57561;SDS011;43397;51.530;5.974;2023-04-03T02:13:13;14.82;;;10.70;;
57561;SDS011;43397;51.530;5.974;2023-04-03T02:15:39;16.10;;;11.10;;
57561;SDS011;43397;51.530;5.974;2023-04-03T02:18:04;15.80;;;11.35;;
57561;SDS011;43397;51.530;5.974;2023-04-03T02:20:30;17.08;;;11.13;;
57561;SDS011;43397;51.530;5.974;2023-04-03T02:22:57;15.70;;;10.32;;
57561;SDS011;43397;51.530;5.974;2023-04-03T02:25:22;13.70;;;9.27;;
57561;SDS011;43397;51.530;5.974;2023-04-03T02:27:48;13.93;;;9.60;;
57561;SDS011;43397;51.530;5.974;2023-04-03T02:30:13;12.63;;;9.60;;
57561;SDS011;43397;51.530;5.974;2023-04-03T02:32:39;13.25;;;8.77;;
57561;SDS011;43397;51.530;5.974;2023-04-03T02:35:04;12.85;;;8.50;;
57561;SDS011;43397;51.530;5.974;2023-04-03T02:37:30;12.02;;;7.55;;
57561;SDS011;43397;51.530;5.974;2023-04-03T02:39:57;12.68;;;7.75;;
57561;SDS011;43397;51.530;5.974;2023-04-03T02:42:22;12.30;;;7.85;;
57561;SDS011;43397;51.530;5.974;2023-04-03T02:44:48;13.25;;;6.95;;
57561;SDS011;43397;51.530;5.974;2023-04-03T02:47:13;11.40;;;6.75;;
57561;SDS011;43397;51.530;5.974;2023-04-03T02:49:39;9.70;;;6.35;;
57561;SDS011;43397;51.530;5.974;2023-04-03T02:52:04;9.45;;;6.35;;
57561;SDS011;43397;51.530;5.974;2023-04-03T02:54:29;10.48;;;5.90;;
57561;SDS011;43397;51.530;5.974;2023-04-03T02:56:56;8.30;;;5.65;;
57561;SDS011;43397;51.530;5.974;2023-04-03T02:59:22;7.95;;;5.40;;
57561;SDS011;43397;51.530;5.974;2023-04-03T03:01:47;8.90;;;5.40;;
57561;SDS011;43397;51.530;5.974;2023-04-03T03:04:13;11.95;;;5.72;;
57561;SDS011;43397;51.530;5.974;2023-04-03T03:06:38;8.45;;;6.00;;
57561;SDS011;43397;51.530;5.974;2023-04-03T03:09:04;10.25;;;5.45;;
57561;SDS011;43397;51.530;5.974;2023-04-03T03:11:29;7.22;;;4.90;;
57561;SDS011;43397;51.530;5.974;2023-04-03T03:13:56;8.80;;;5.25;;
57561;SDS011;43397;51.530;5.974;2023-04-03T03:16:22;8.80;;;5.22;;
57561;SDS011;43397;51.530;5.974;2023-04-03T03:18:47;7.13;;;5.13;;
57561;SDS011;43397;51.530;5.974;2023-04-03T03:21:13;9.77;;;4.78;;
57561;SDS011;43397;51.530;5.974;2023-04-03T03:23:38;9.77;;;4.80;;
57561;SDS011;43397;51.530;5.974;2023-04-03T03:26:04;6.72;;;4.47;;
57561;SDS011;43397;51.530;5.974;2023-04-03T03:28:31;7.90;;;4.22;;
57561;SDS011;43397;51.530;5.974;2023-04-03T03:30:58;7.32;;;4.63;;
57561;SDS011;43397;51.530;5.974;2023-04-03T03:33:23;8.75;;;5.07;;
57561;SDS011;43397;51.530;5.974;2023-04-03T03:35:49;8.55;;;4.28;;
57561;SDS011;43397;51.530;5.974;2023-04-03T03:38:15;8.13;;;3.90;;
57561;SDS011;43397;51.530;5.974;2023-04-03T03:40:40;6.35;;;4.03;;
57561;SDS011;43397;51.530;5.974;2023-04-03T03:43:05;7.78;;;4.93;;
57561;SDS011;43397;51.530;5.974;2023-04-03T03:45:31;7.00;;;3.53;;
57561;SDS011;43397;51.530;5.974;2023-04-03T03:47:58;8.32;;;3.53;;
57561;SDS011;43397;51.530;5.974;2023-04-03T03:50:23;9.27;;;3.88;;
57561;SDS011;43397;51.530;5.974;2023-04-03T03:52:49;6.82;;;3.83;;
57561;SDS011;43397;51.530;5.974;2023-04-03T03:55:15;11.07;;;3.95;;
57561;SDS011;43397;51.530;5.974;2023-04-03T03:57:40;8.45;;;4.07;;
57561;SDS011;43397;51.530;5.974;2023-04-03T04:00:06;8.05;;;4.00;;
57561;SDS011;43397;51.530;5.974;2023-04-03T04:02:31;8.15;;;4.10;;
57561;SDS011;43397;51.530;5.974;2023-04-03T04:04:58;5.85;;;3.22;;
57561;SDS011;43397;51.530;5.974;2023-04-03T04:07:24;8.48;;;3.85;;
57561;SDS011;43397;51.530;5.974;2023-04-03T04:09:49;6.85;;;3.70;;
57561;SDS011;43397;51.530;5.974;2023-04-03T04:12:15;9.10;;;3.88;;
57561;SDS011;43397;51.530;5.974;2023-04-03T04:14:40;6.78;;;3.15;;
57561;SDS011;43397;51.530;5.974;2023-04-03T04:17:06;7.47;;;4.00;;
57561;SDS011;43397;51.530;5.974;2023-04-03T04:19:31;6.10;;;3.78;;
57561;SDS011;43397;51.530;5.974;2023-04-03T04:21:58;6.95;;;3.60;;
57561;SDS011;43397;51.530;5.974;2023-04-03T04:24:23;9.13;;;3.33;;
57561;SDS011;43397;51.530;5.974;2023-04-03T04:26:49;7.95;;;3.42;;
57561;SDS011;43397;51.530;5.974;2023-04-03T04:29:14;8.52;;;3.22;;
57561;SDS011;43397;51.530;5.974;2023-04-03T04:31:40;7.55;;;3.83;;
57561;SDS011;43397;51.530;5.974;2023-04-03T04:34:05;5.93;;;3.53;;
57561;SDS011;43397;51.530;5.974;2023-04-03T04:36:31;6.50;;;3.08;;
57561;SDS011;43397;51.530;5.974;2023-04-03T04:38:58;8.05;;;4.00;;
57561;SDS011;43397;51.530;5.974;2023-04-03T04:41:23;8.38;;;3.63;;
57561;SDS011;43397;51.530;5.974;2023-04-03T04:43:49;6.32;;;3.17;;
57561;SDS011;43397;51.530;5.974;2023-04-03T04:46:14;5.80;;;2.90;;
57561;SDS011;43397;51.530;5.974;2023-04-03T04:48:40;4.18;;;3.10;;
57561;SDS011;43397;51.530;5.974;2023-04-03T04:51:06;7.65;;;3.63;;
57561;SDS011;43397;51.530;5.974;2023-04-03T04:53:31;6.40;;;3.40;;
57561;SDS011;43397;51.530;5.974;2023-04-03T04:55:58;6.53;;;3.08;;
57561;SDS011;43397;51.530;5.974;2023-04-03T04:58:24;6.90;;;3.30;;
57561;SDS011;43397;51.530;5.974;2023-04-03T05:00:49;10.95;;;3.20;;
57561;SDS011;43397;51.530;5.974;2023-04-03T05:03:15;12.02;;;3.65;;
57561;SDS011;43397;51.530;5.974;2023-04-03T05:05:40;5.78;;;2.95;;
57561;SDS011;43397;51.530;5.974;2023-04-03T05:08:06;6.18;;;3.33;;
57561;SDS011;43397;51.530;5.974;2023-04-03T05:10:32;8.05;;;3.10;;
57561;SDS011;43397;51.530;5.974;2023-04-03T05:12:58;7.78;;;3.30;;
57561;SDS011;43397;51.530;5.974;2023-04-03T05:15:24;5.07;;;2.80;;
57561;SDS011;43397;51.530;5.974;2023-04-03T05:17:49;6.07;;;3.28;;
57561;SDS011;43397;51.530;5.974;2023-04-03T05:20:15;6.53;;;2.90;;
57561;SDS011;43397;51.530;5.974;2023-04-03T05:22:40;7.32;;;2.83;;
57561;SDS011;43397;51.530;5.974;2023-04-03T05:25:06;11.05;;;3.88;;
57561;SDS011;43397;51.530;5.974;2023-04-03T05:27:31;7.03;;;2.60;;
57561;SDS011;43397;51.530;5.974;2023-04-03T05:29:58;7.85;;;3.20;;
57561;SDS011;43397;51.530;5.974;2023-04-03T05:32:24;4.40;;;2.30;;
57561;SDS011;43397;51.530;5.974;2023-04-03T05:34:50;5.32;;;2.90;;
57561;SDS011;43397;51.530;5.974;2023-04-03T05:37:15;5.82;;;2.83;;
57561;SDS011;43397;51.530;5.974;2023-04-03T05:39:41;8.00;;;3.15;;
57561;SDS011;43397;51.530;5.974;2023-04-03T05:42:06;8.88;;;3.00;;
57561;SDS011;43397;51.530;5.974;2023-04-03T05:44:32;7.78;;;3.25;;
57561;SDS011;43397;51.530;5.974;2023-04-03T05:46:59;4.80;;;2.22;;
57561;SDS011;43397;51.530;5.974;2023-04-03T05:49:24;7.15;;;3.15;;
57561;SDS011;43397;51.530;5.974;2023-04-03T05:51:50;7.30;;;3.05;;
57561;SDS011;43397;51.530;5.974;2023-04-03T05:54:16;5.22;;;2.75;;
57561;SDS011;43397;51.530;5.974;2023-04-03T05:56:42;7.82;;;3.70;;
57561;SDS011;43397;51.530;5.974;2023-04-03T05:59:08;8.52;;;3.10;;
57561;SDS011;43397;51.530;5.974;2023-04-03T06:01:33;7.78;;;2.75;;
57561;SDS011;43397;51.530;5.974;2023-04-03T06:04:00;9.30;;;3.35;;
57561;SDS011;43397;51.530;5.974;2023-04-03T06:06:26;7.05;;;2.70;;
57561;SDS011;43397;51.530;5.974;2023-04-03T06:08:51;6.82;;;3.30;;
57561;SDS011;43397;51.530;5.974;2023-04-03T06:11:17;6.40;;;3.05;;
57561;SDS011;43397;51.530;5.974;2023-04-03T06:13:42;7.45;;;4.00;;
57561;SDS011;43397;51.530;5.974;2023-04-03T06:16:08;6.40;;;3.78;;
57561;SDS011;43397;51.530;5.974;2023-04-03T06:18:33;8.50;;;5.95;;
57561;SDS011;43397;51.530;5.974;2023-04-03T06:21:00;6.10;;;3.13;;
57561;SDS011;43397;51.530;5.974;2023-04-03T06:23:26;6.50;;;3.75;;
57561;SDS011;43397;51.530;5.974;2023-04-03T06:25:51;6.13;;;3.53;;
57561;SDS011;43397;51.530;5.974;2023-04-03T06:28:16;7.03;;;3.03;;
57561;SDS011;43397;51.530;5.974;2023-04-03T06:30:42;5.03;;;2.50;;
57561;SDS011;43397;51.530;5.974;2023-04-03T06:33:07;8.43;;;3.10;;
57561;SDS011;43397;51.530;5.974;2023-04-03T06:35:33;7.38;;;3.05;;
57561;SDS011;43397;51.530;5.974;2023-04-03T06:38:00;6.45;;;2.38;;
57561;SDS011;43397;51.530;5.974;2023-04-03T06:40:25;5.28;;;2.25;;
57561;SDS011;43397;51.530;5.974;2023-04-03T06:42:51;6.82;;;2.63;;
57561;SDS011;43397;51.530;5.974;2023-04-03T06:45:16;6.03;;;3.00;;
57561;SDS011;43397;51.530;5.974;2023-04-03T06:47:42;7.55;;;3.25;;
57561;SDS011;43397;51.530;5.974;2023-04-03T06:50:08;4.70;;;2.22;;
57561;SDS011;43397;51.530;5.974;2023-04-03T06:52:34;8.70;;;2.47;;
57561;SDS011;43397;51.530;5.974;2023-04-03T06:55:01;5.95;;;2.47;;
57561;SDS011;43397;51.530;5.974;2023-04-03T06:57:26;8.32;;;2.88;;
57561;SDS011;43397;51.530;5.974;2023-04-03T06:59:52;8.13;;;3.15;;
57561;SDS011;43397;51.530;5.974;2023-04-03T07:02:17;5.75;;;2.72;;
57561;SDS011;43397;51.530;5.974;2023-04-03T07:04:43;6.95;;;2.25;;
57561;SDS011;43397;51.530;5.974;2023-04-03T07:07:08;5.35;;;2.88;;
57561;SDS011;43397;51.530;5.974;2023-04-03T07:09:34;4.88;;;2.30;;
57561;SDS011;43397;51.530;5.974;2023-04-03T07:12:01;8.35;;;2.58;;
57561;SDS011;43397;51.530;5.974;2023-04-03T07:14:26;5.07;;;2.58;;
57561;SDS011;43397;51.530;5.974;2023-04-03T07:16:52;5.53;;;2.38;;
57561;SDS011;43397;51.530;5.974;2023-04-03T07:19:17;5.75;;;2.38;;
57561;SDS011;43397;51.530;5.974;2023-04-03T07:21:43;4.68;;;2.28;;
57561;SDS011;43397;51.530;5.974;2023-04-03T07:24:08;9.13;;;2.92;;
57561;SDS011;43397;51.530;5.974;2023-04-03T07:26:33;6.72;;;2.45;;
57561;SDS011;43397;51.530;5.974;2023-04-03T07:29:00;9.32;;;3.08;;
57561;SDS011;43397;51.530;5.974;2023-04-03T07:31:26;5.68;;;2.60;;
57561;SDS011;43397;51.530;5.974;2023-04-03T07:33:51;7.43;;;2.65;;
57561;SDS011;43397;51.530;5.974;2023-04-03T07:36:17;4.03;;;1.95;;
57561;SDS011;43397;51.530;5.974;2023-04-03T07:38:44;5.32;;;2.05;;
57561;SDS011;43397;51.530;5.974;2023-04-03T07:41:11;10.05;;;2.42;;
57561;SDS011;43397;51.530;5.974;2023-04-03T07:43:37;6.05;;;2.50;;
57561;SDS011;43397;51.530;5.974;2023-04-03T07:46:04;8.15;;;2.60;;
57561;SDS011;43397;51.530;5.974;2023-04-03T07:48:30;7.22;;;2.55;;
57561;SDS011;43397;51.530;5.974;2023-04-03T07:50:58;6.78;;;3.03;;
57561;SDS011;43397;51.530;5.974;2023-04-03T07:53:25;4.95;;;2.00;;
57561;SDS011;43397;51.530;5.974;2023-04-03T07:55:50;7.65;;;2.35;;
57561;SDS011;43397;51.530;5.974;2023-04-03T07:58:16;3.88;;;1.98;;
57561;SDS011;43397;51.530;5.974;2023-04-03T08:00:42;6.28;;;2.40;;
57561;SDS011;43397;51.530;5.974;2023-04-03T08:03:10;4.13;;;1.65;;
57561;SDS011;43397;51.530;5.974;2023-04-03T08:05:36;6.03;;;2.30;;
57561;SDS011;43397;51.530;5.974;2023-04-03T08:08:01;5.47;;;2.50;;
57561;SDS011;43397;51.530;5.974;2023-04-03T08:10:27;7.13;;;1.90;;
57561;SDS011;43397;51.530;5.974;2023-04-03T08:12:54;5.88;;;2.08;;
57561;SDS011;43397;51.530;5.974;2023-04-03T08:15:20;7.15;;;2.90;;
57561;SDS011;43397;51.530;5.974;2023-04-03T08:17:46;4.13;;;2.33;;
57561;SDS011;43397;51.530;5.974;2023-04-03T08:20:12;4.30;;;1.98;;
57561;SDS011;43397;51.530;5.974;2023-04-03T08:22:38;4.18;;;1.65;;
57561;SDS011;43397;51.530;5.974;2023-04-03T08:25:04;8.77;;;2.83;;
57561;SDS011;43397;51.530;5.974;2023-04-03T08:27:29;6.00;;;2.03;;
57561;SDS011;43397;51.530;5.974;2023-04-03T08:29:55;6.43;;;2.67;;
57561;SDS011;43397;51.530;5.974;2023-04-03T08:32:20;6.65;;;2.72;;
57561;SDS011;43397;51.530;5.974;2023-04-03T08:34:46;6.32;;;1.85;;
57561;SDS011;43397;51.530;5.974;2023-04-03T08:37:13;4.90;;;1.90;;
57561;SDS011;43397;51.530;5.974;2023-04-03T08:39:38;6.13;;;1.55;;
57561;SDS011;43397;51.530;5.974;2023-04-03T08:42:05;5.13;;;1.85;;
57561;SDS011;43397;51.530;5.974;2023-04-03T08:44:38;5.57;;;1.48;;
57561;SDS011;43397;51.530;5.974;2023-04-03T08:47:09;4.57;;;2.30;;
57561;SDS011;43397;51.530;5.974;2023-04-03T08:49:37;3.28;;;1.52;;
57561;SDS011;43397;51.530;5.974;2023-04-03T08:52:05;3.47;;;1.57;;
57561;SDS011;43397;51.530;5.974;2023-04-03T08:54:37;4.78;;;1.80;;
57561;SDS011;43397;51.530;5.974;2023-04-03T08:57:04;4.78;;;1.70;;
57561;SDS011;43397;51.530;5.974;2023-04-03T08:59:31;4.63;;;1.70;;
57561;SDS011;43397;51.530;5.974;2023-04-03T09:01:57;3.42;;;1.70;;
57561;SDS011;43397;51.530;5.974;2023-04-03T09:04:24;4.78;;;1.63;;
57561;SDS011;43397;51.530;5.974;2023-04-03T09:06:52;4.20;;;1.92;;
57561;SDS011;43397;51.530;5.974;2023-04-03T09:09:23;5.65;;;1.60;;
57561;SDS011;43397;51.530;5.974;2023-04-03T09:11:53;2.65;;;1.50;;
57561;SDS011;43397;51.530;5.974;2023-04-03T09:16:46;3.05;;;1.30;;
57561;SDS011;43397;51.530;5.974;2023-04-03T09:19:15;3.15;;;1.25;;
57561;SDS011;43397;51.530;5.974;2023-04-03T09:21:43;3.10;;;1.10;;
57561;SDS011;43397;51.530;5.974;2023-04-03T09:24:09;2.63;;;1.20;;
57561;SDS011;43397;51.530;5.974;2023-04-03T09:26:36;3.35;;;1.40;;
57561;SDS011;43397;51.530;5.974;2023-04-03T09:29:04;3.15;;;1.20;;
57561;SDS011;43397;51.530;5.974;2023-04-03T09:31:31;2.05;;;1.10;;
57561;SDS011;43397;51.530;5.974;2023-04-03T09:34:01;1.90;;;0.90;;
57561;SDS011;43397;51.530;5.974;2023-04-03T09:36:37;2.50;;;1.05;;
57561;SDS011;43397;51.530;5.974;2023-04-03T09:39:03;1.83;;;1.00;;
57561;SDS011;43397;51.530;5.974;2023-04-03T09:41:29;3.28;;;1.13;;
57561;SDS011;43397;51.530;5.974;2023-04-03T09:43:54;3.95;;;1.33;;
57561;SDS011;43397;51.530;5.974;2023-04-03T09:46:25;1.73;;;0.88;;
57561;SDS011;43397;51.530;5.974;2023-04-03T09:48:55;1.80;;;1.10;;
57561;SDS011;43397;51.530;5.974;2023-04-03T09:51:22;13.63;;;5.03;;
57561;SDS011;43397;51.530;5.974;2023-04-03T09:53:49;1.98;;;0.75;;
57561;SDS011;43397;51.530;5.974;2023-04-03T09:56:19;2.70;;;1.00;;
57561;SDS011;43397;51.530;5.974;2023-04-03T09:58:45;2.60;;;0.80;;
57561;SDS011;43397;51.530;5.974;2023-04-03T10:01:20;1.95;;;1.15;;
57561;SDS011;43397;51.530;5.974;2023-04-03T10:03:47;1.67;;;1.00;;
57561;SDS011;43397;51.530;5.974;2023-04-03T10:06:29;3.55;;;1.10;;
57561;SDS011;43397;51.530;5.974;2023-04-03T10:08:58;1.55;;;1.05;;
57561;SDS011;43397;51.530;5.974;2023-04-03T10:11:24;1.55;;;0.90;;
57561;SDS011;43397;51.530;5.974;2023-04-03T10:13:50;1.38;;;0.73;;
57561;SDS011;43397;51.530;5.974;2023-04-03T10:16:18;3.42;;;1.10;;
57561;SDS011;43397;51.530;5.974;2023-04-03T10:18:44;1.83;;;0.90;;
57561;SDS011;43397;51.530;5.974;2023-04-03T10:21:14;1.65;;;0.93;;
57561;SDS011;43397;51.530;5.974;2023-04-03T10:26:08;2.85;;;1.17;;
57561;SDS011;43397;51.530;5.974;2023-04-03T10:28:39;2.70;;;0.85;;
57561;SDS011;43397;51.530;5.974;2023-04-03T10:31:09;1.35;;;0.90;;
57561;SDS011;43397;51.530;5.974;2023-04-03T10:33:39;2.65;;;1.02;;
57561;SDS011;43397;51.530;5.974;2023-04-03T10:36:15;1.58;;;0.90;;
57561;SDS011;43397;51.530;5.974;2023-04-03T10:38:43;6.18;;;1.05;;
57561;SDS011;43397;51.530;5.974;2023-04-03T10:41:15;2.05;;;0.93;;
57561;SDS011;43397;51.530;5.974;2023-04-03T10:43:42;4.00;;;1.07;;
57561;SDS011;43397;51.530;5.974;2023-04-03T10:46:09;2.72;;;1.20;;
57561;SDS011;43397;51.530;5.974;2023-04-03T10:48:40;2.22;;;1.15;;
57561;SDS011;43397;51.530;5.974;2023-04-03T10:51:09;2.85;;;1.20;;
57561;SDS011;43397;51.530;5.974;2023-04-03T10:53:40;3.20;;;1.55;;
57561;SDS011;43397;51.530;5.974;2023-04-03T10:56:07;2.03;;;1.10;;
57561;SDS011;43397;51.530;5.974;2023-04-03T10:58:35;1.70;;;0.93;;
57561;SDS011;43397;51.530;5.974;2023-04-03T11:01:02;2.47;;;0.95;;
57561;SDS011;43397;51.530;5.974;2023-04-03T11:03:32;2.95;;;0.85;;
57561;SDS011;43397;51.530;5.974;2023-04-03T11:05:59;1.95;;;1.00;;
57561;SDS011;43397;51.530;5.974;2023-04-03T11:08:26;2.58;;;1.00;;
57561;SDS011;43397;51.530;5.974;2023-04-03T11:10:55;2.30;;;1.20;;
57561;SDS011;43397;51.530;5.974;2023-04-03T11:13:23;2.92;;;1.10;;
57561;SDS011;43397;51.530;5.974;2023-04-03T11:15:49;2.13;;;0.90;;
57561;SDS011;43397;51.530;5.974;2023-04-03T11:18:17;2.92;;;1.27;;
57561;SDS011;43397;51.530;5.974;2023-04-03T11:20:44;3.58;;;1.20;;
57561;SDS011;43397;51.530;5.974;2023-04-03T11:25:38;2.72;;;1.15;;
57561;SDS011;43397;51.530;5.974;2023-04-03T11:28:09;4.30;;;1.25;;
57561;SDS011;43397;51.530;5.974;2023-04-03T11:30:38;4.68;;;1.00;;
57561;SDS011;43397;51.530;5.974;2023-04-03T11:33:12;3.05;;;1.25;;
57561;SDS011;43397;51.530;5.974;2023-04-03T11:35:42;3.33;;;1.10;;
57561;SDS011;43397;51.530;5.974;2023-04-03T11:38:10;3.05;;;1.05;;
57561;SDS011;43397;51.530;5.974;2023-04-03T11:40:39;2.38;;;1.10;;
57561;SDS011;43397;51.530;5.974;2023-04-03T11:43:06;2.38;;;0.93;;
57561;SDS011;43397;51.530;5.974;2023-04-03T11:45:34;2.78;;;1.10;;
57561;SDS011;43397;51.530;5.974;2023-04-03T11:48:01;2.70;;;0.88;;
57561;SDS011;43397;51.530;5.974;2023-04-03T11:50:31;2.03;;;1.00;;
57561;SDS011;43397;51.530;5.974;2023-04-03T11:52:57;3.40;;;1.20;;
57561;SDS011;43397;51.530;5.974;2023-04-03T11:55:42;4.35;;;1.50;;
57561;SDS011;43397;51.530;5.974;2023-04-03T11:58:11;3.80;;;2.20;;
57561;SDS011;43397;51.530;5.974;2023-04-03T12:03:07;3.13;;;1.20;;
57561;SDS011;43397;51.530;5.974;2023-04-03T12:08:24;3.67;;;1.20;;
57561;SDS011;43397;51.530;5.974;2023-04-03T12:13:29;3.30;;;1.27;;
57561;SDS011;43397;51.530;5.974;2023-04-03T12:15:55;2.42;;;1.10;;
57561;SDS011;43397;51.530;5.974;2023-04-03T12:21:18;3.40;;;1.42;;
57561;SDS011;43397;51.530;5.974;2023-04-03T12:24:03;4.15;;;1.50;;
57561;SDS011;43397;51.530;5.974;2023-04-03T12:26:30;4.22;;;1.67;;
57561;SDS011;43397;51.530;5.974;2023-04-03T12:28:56;4.28;;;1.40;;
57561;SDS011;43397;51.530;5.974;2023-04-03T12:31:22;3.78;;;1.40;;
57561;SDS011;43397;51.530;5.974;2023-04-03T12:33:58;8.05;;;1.33;;
57561;SDS011;43397;51.530;5.974;2023-04-03T12:36:28;3.05;;;1.42;;
57561;SDS011;43397;51.530;5.974;2023-04-03T12:39:01;2.90;;;1.27;;
57561;SDS011;43397;51.530;5.974;2023-04-03T12:41:30;3.17;;;1.45;;
57561;SDS011;43397;51.530;5.974;2023-04-03T12:44:01;2.63;;;1.30;;
57561;SDS011;43397;51.530;5.974;2023-04-03T12:46:33;3.22;;;1.50;;
57561;SDS011;43397;51.530;5.974;2023-04-03T12:49:00;3.53;;;1.70;;
57561;SDS011;43397;51.530;5.974;2023-04-03T12:51:29;3.55;;;1.60;;
57561;SDS011;43397;51.530;5.974;2023-04-03T12:53:58;3.22;;;1.33;;
57561;SDS011;43397;51.530;5.974;2023-04-03T12:56:26;3.78;;;1.65;;
57561;SDS011;43397;51.530;5.974;2023-04-03T12:58:52;4.50;;;1.92;;
57561;SDS011;43397;51.530;5.974;2023-04-03T13:01:18;3.28;;;1.30;;
57561;SDS011;43397;51.530;5.974;2023-04-03T13:03:47;2.30;;;1.40;;
57561;SDS011;43397;51.530;5.974;2023-04-03T13:06:14;2.88;;;1.50;;
57561;SDS011;43397;51.530;5.974;2023-04-03T13:08:49;3.00;;;1.50;;
57561;SDS011;43397;51.530;5.974;2023-04-03T13:11:14;2.47;;;1.60;;
57561;SDS011;43397;51.530;5.974;2023-04-03T13:13:40;3.42;;;1.50;;
57561;SDS011;43397;51.530;5.974;2023-04-03T13:16:18;5.25;;;1.70;;
57561;SDS011;43397;51.530;5.974;2023-04-03T13:18:44;3.05;;;1.95;;
57561;SDS011;43397;51.530;5.974;2023-04-03T13:21:17;3.10;;;1.50;;
57561;SDS011;43397;51.530;5.974;2023-04-03T13:23:45;3.97;;;1.80;;
57561;SDS011;43397;51.530;5.974;2023-04-03T13:26:12;2.58;;;1.23;;
57561;SDS011;43397;51.530;5.974;2023-04-03T13:28:38;3.20;;;1.65;;
57561;SDS011;43397;51.530;5.974;2023-04-03T13:31:06;3.78;;;1.73;;
57561;SDS011;43397;51.530;5.974;2023-04-03T13:33:33;4.50;;;1.48;;
57561;SDS011;43397;51.530;5.974;2023-04-03T13:36:00;4.40;;;1.77;;
57561;SDS011;43397;51.530;5.974;2023-04-03T13:38:27;5.80;;;1.80;;
57561;SDS011;43397;51.530;5.974;2023-04-03T13:40:54;3.47;;;1.70;;
57561;SDS011;43397;51.530;5.974;2023-04-03T13:43:22;7.15;;;2.00;;
57561;SDS011;43397;51.530;5.974;2023-04-03T13:45:56;3.90;;;1.98;;
57561;SDS011;43397;51.530;5.974;2023-04-03T13:48:21;3.53;;;1.85;;
57561;SDS011;43397;51.530;5.974;2023-04-03T13:50:51;5.78;;;2.55;;
57561;SDS011;43397;51.530;5.974;2023-04-03T13:53:18;2.92;;;1.77;;
57561;SDS011;43397;51.530;5.974;2023-04-03T13:55:52;3.92;;;2.08;;
57561;SDS011;43397;51.530;5.974;2023-04-03T13:58:20;1.85;;;1.30;;
57561;SDS011;43397;51.530;5.974;2023-04-03T14:00:50;3.42;;;1.70;;
57561;SDS011;43397;51.530;5.974;2023-04-03T14:03:16;6.78;;;2.15;;
57561;SDS011;43397;51.530;5.974;2023-04-03T14:05:43;4.18;;;1.77;;
57561;SDS011;43397;51.530;5.974;2023-04-03T14:08:09;2.95;;;1.70;;
57561;SDS011;43397;51.530;5.974;2023-04-03T14:10:34;2.97;;;1.70;;
57561;SDS011;43397;51.530;5.974;2023-04-03T14:13:00;3.30;;;1.50;;
57561;SDS011;43397;51.530;5.974;2023-04-03T14:15:26;5.43;;;2.00;;
57561;SDS011;43397;51.530;5.974;2023-04-03T14:17:53;3.80;;;1.73;;
57561;SDS011;43397;51.530;5.974;2023-04-03T14:20:20;3.55;;;1.75;;
57561;SDS011;43397;51.530;5.974;2023-04-03T14:22:46;5.90;;;1.88;;
57561;SDS011;43397;51.530;5.974;2023-04-03T14:25:11;4.32;;;1.73;;
57561;SDS011;43397;51.530;5.974;2023-04-03T14:27:38;5.35;;;2.13;;
57561;SDS011;43397;51.530;5.974;2023-04-03T14:30:04;2.95;;;1.25;;
57561;SDS011;43397;51.530;5.974;2023-04-03T14:32:30;4.30;;;1.50;;
57561;SDS011;43397;51.530;5.974;2023-04-03T14:34:57;3.20;;;1.75;;
57561;SDS011;43397;51.530;5.974;2023-04-03T14:37:24;3.45;;;1.63;;
57561;SDS011;43397;51.530;5.974;2023-04-03T14:39:50;3.15;;;1.42;;
57561;SDS011;43397;51.530;5.974;2023-04-03T14:42:17;3.40;;;1.67;;
57561;SDS011;43397;51.530;5.974;2023-04-03T14:44:43;4.75;;;1.85;;
57561;SDS011;43397;51.530;5.974;2023-04-03T14:47:10;4.03;;;1.60;;
57561;SDS011;43397;51.530;5.974;2023-04-03T14:49:35;4.88;;;1.88;;
57561;SDS011;43397;51.530;5.974;2023-04-03T14:52:02;3.45;;;1.70;;
57561;SDS011;43397;51.530;5.974;2023-04-03T14:54:28;3.80;;;1.50;;
57561;SDS011;43397;51.530;5.974;2023-04-03T14:56:54;3.08;;;1.40;;
57561;SDS011;43397;51.530;5.974;2023-04-03T14:59:20;3.42;;;1.60;;
57561;SDS011;43397;51.530;5.974;2023-04-03T15:01:45;4.75;;;1.73;;